createdAt,value
2023-02-02T00:00:56.864Z,97.81
2023-02-02T00:01:56.872Z,97.50
2023-02-02T00:02:56.867Z,98.22
2023-02-02T00:03:56.846Z,97.29
2023-02-02T00:04:56.808Z,97.29
2023-02-02T00:05:56.777Z,96.98
2023-02-02T00:06:56.768Z,97.60
2023-02-02T00:07:56.775Z,96.98
2023-02-02T00:08:56.800Z,96.98
2023-02-02T00:09:56.749Z,96.98
2023-02-02T00:10:56.721Z,96.98
2023-02-02T00:11:56.720Z,96.05
2023-02-02T00:12:56.707Z,95.43
2023-02-02T00:13:56.725Z,95.64
2023-02-02T00:14:56.699Z,96.26
2023-02-02T00:15:59.644Z,95.95
2023-02-02T00:16:57.646Z,96.47
2023-02-02T00:17:56.646Z,95.64
2023-02-02T00:18:56.668Z,95.64
2023-02-02T00:19:56.647Z,95.84
2023-02-02T00:20:56.625Z,96.05
2023-02-02T00:21:56.631Z,95.74
2023-02-02T00:22:56.606Z,95.02
2023-02-02T00:23:59.128Z,94.92
2023-02-02T00:24:56.625Z,94.92
2023-02-02T00:25:56.572Z,95.53
2023-02-02T00:26:56.555Z,95.95
2023-02-02T00:28:17.565Z,95.32
2023-02-02T00:28:57.163Z,95.22
2023-02-02T00:29:56.541Z,96.05
2023-02-02T00:30:56.556Z,94.92
2023-02-02T00:31:57.141Z,95.37
2023-02-02T00:32:56.493Z,95.57
2023-02-02T00:33:56.486Z,95.99
2023-02-02T00:34:56.487Z,97.02
2023-02-02T00:35:56.517Z,96.20
2023-02-02T00:36:57.127Z,95.84
2023-02-02T00:37:57.127Z,95.99
2023-02-02T00:38:56.482Z,95.89
2023-02-02T00:39:57.438Z,95.78
2023-02-02T00:40:56.419Z,95.57
2023-02-02T00:41:56.408Z,95.89
2023-02-02T00:42:56.380Z,95.99
2023-02-02T00:43:56.397Z,97.02
2023-02-02T00:44:56.375Z,96.76
2023-02-02T00:45:56.368Z,96.86
2023-02-02T00:46:57.390Z,97.07
2023-02-02T00:47:56.332Z,96.03
2023-02-02T00:48:56.330Z,96.51
2023-02-02T00:49:56.313Z,96.09
2023-02-02T00:50:56.317Z,96.30
2023-02-02T00:51:56.285Z,96.76
2023-02-02T00:52:56.279Z,96.76
2023-02-02T00:53:56.273Z,96.76
2023-02-02T00:54:56.266Z,96.86
2023-02-02T00:55:59.149Z,96.76
2023-02-02T00:56:56.257Z,97.17
2023-02-02T00:57:56.248Z,97.07
2023-02-02T00:58:57.132Z,97.59
2023-02-02T00:59:56.222Z,97.38
2023-02-02T01:00:56.199Z,97.38
2023-02-02T01:01:56.223Z,98.62
2023-02-02T01:02:56.175Z,98.72
2023-02-02T01:03:57.135Z,97.69
2023-02-02T01:04:56.148Z,98.31
2023-02-02T01:05:56.140Z,98.41
2023-02-02T01:06:56.132Z,98.31
2023-02-02T01:07:56.183Z,98.72
2023-02-02T01:08:56.126Z,98.41
2023-02-02T01:09:56.095Z,98.72
2023-02-02T01:10:56.085Z,98.72
2023-02-02T01:11:56.099Z,98.72
2023-02-02T01:12:56.055Z,98.83
2023-02-02T01:13:56.083Z,99.04
2023-02-02T01:14:56.037Z,98.93
2023-02-02T01:15:56.025Z,98.83
2023-02-02T01:16:58.615Z,98.93
2023-02-02T01:17:56.014Z,99.34
2023-02-02T01:18:55.999Z,99.86
2023-02-02T01:19:56.008Z,99.34
2023-02-02T01:20:55.992Z,99.34
2023-02-02T01:21:55.974Z,99.44
2023-02-02T01:22:55.950Z,99.44
2023-02-02T01:23:55.945Z,99.99
2023-02-02T01:24:55.941Z,99.76
2023-02-02T01:25:56.149Z,99.99
2023-02-02T01:26:55.905Z,99.99
2023-02-02T01:27:55.939Z,99.99
2023-02-02T01:28:55.888Z,99.99
2023-02-02T01:29:55.916Z,99.99
2023-02-02T01:30:55.913Z,99.99
2023-02-02T01:31:55.928Z,99.99
2023-02-02T01:32:55.866Z,99.99
2023-02-02T01:33:56.644Z,99.99
2023-02-02T01:34:55.821Z,99.99
2023-02-02T01:35:55.819Z,99.99
2023-02-02T01:36:55.826Z,99.99
2023-02-02T01:37:55.801Z,99.99
2023-02-02T01:38:55.809Z,99.99
2023-02-02T01:39:55.781Z,99.99
2023-02-02T01:40:55.792Z,99.99
2023-02-02T01:41:55.769Z,99.99
2023-02-02T01:42:55.729Z,99.99
2023-02-02T01:43:55.756Z,99.99
2023-02-02T01:44:55.743Z,99.99
2023-02-02T01:45:56.650Z,99.99
2023-02-02T01:47:02.621Z,99.99
2023-02-02T01:47:55.705Z,99.99
2023-02-02T01:48:55.671Z,99.99
2023-02-02T01:49:55.694Z,99.99
2023-02-02T01:50:56.665Z,99.99
2023-02-02T01:51:55.647Z,99.99
2023-02-02T01:52:55.648Z,99.99
2023-02-02T01:53:55.642Z,99.99
2023-02-02T01:54:55.612Z,99.99
2023-02-02T01:55:55.612Z,99.99
2023-02-02T01:56:55.586Z,99.99
2023-02-02T01:57:55.586Z,99.99
2023-02-02T01:58:55.600Z,99.99
2023-02-02T01:59:55.571Z,99.99
2023-02-02T02:00:55.616Z,99.99
2023-02-02T02:01:55.647Z,99.99
2023-02-02T02:02:55.538Z,99.99
2023-02-02T02:03:55.515Z,99.99
2023-02-02T02:04:55.527Z,99.99
2023-02-02T02:05:56.195Z,99.99
2023-02-02T02:06:55.502Z,99.99
2023-02-02T02:07:55.490Z,99.99
2023-02-02T02:08:55.469Z,99.99
2023-02-02T02:09:55.461Z,99.99
2023-02-02T02:10:58.141Z,99.99
2023-02-02T02:11:55.458Z,99.99
2023-02-02T02:12:55.428Z,99.99
2023-02-02T02:13:55.415Z,99.99
2023-02-02T02:14:55.396Z,99.99
2023-02-02T02:15:55.408Z,99.99
2023-02-02T02:16:55.410Z,99.99
2023-02-02T02:17:55.382Z,99.99
2023-02-02T02:18:55.361Z,99.99
2023-02-02T02:19:55.347Z,99.99
2023-02-02T02:20:58.148Z,99.99
2023-02-02T02:21:55.319Z,99.99
2023-02-02T02:22:55.332Z,99.99
2023-02-02T02:23:55.298Z,99.99
2023-02-02T02:24:55.291Z,99.99
2023-02-02T02:25:55.307Z,99.99
2023-02-02T02:26:55.273Z,99.99
2023-02-02T02:27:55.253Z,99.99
2023-02-02T02:28:55.257Z,99.99
2023-02-02T02:29:55.300Z,99.99
2023-02-02T02:30:55.326Z,99.99
2023-02-02T02:31:55.231Z,99.99
2023-02-02T02:32:55.208Z,99.99
2023-02-02T02:33:55.188Z,99.99
2023-02-02T02:34:55.191Z,99.99
2023-02-02T02:35:55.181Z,99.99
2023-02-02T02:36:55.189Z,99.99
2023-02-02T02:37:55.145Z,99.99
2023-02-02T02:38:58.159Z,99.99
2023-02-02T02:39:58.120Z,99.99
2023-02-02T02:40:55.124Z,99.99
2023-02-02T02:41:55.103Z,99.99
2023-02-02T02:42:55.126Z,99.99
2023-02-02T02:43:55.086Z,99.99
2023-02-02T02:44:55.072Z,99.99
2023-02-02T02:45:55.120Z,99.99
2023-02-02T02:46:55.052Z,99.99
2023-02-02T02:47:55.098Z,99.99
2023-02-02T02:48:55.032Z,99.99
2023-02-02T02:49:55.017Z,99.99
2023-02-02T02:50:55.028Z,99.99
2023-02-02T02:51:55.004Z,99.99
2023-02-02T02:53:01.630Z,99.99
2023-02-02T02:53:54.981Z,99.99
2023-02-02T02:54:55.640Z,99.99
2023-02-02T02:55:55.035Z,99.99
2023-02-02T02:56:54.956Z,99.99
2023-02-02T02:57:54.934Z,99.99
2023-02-02T02:58:54.940Z,99.99
2023-02-02T02:59:54.919Z,99.99
2023-02-02T03:00:54.931Z,99.99
2023-02-02T03:01:54.931Z,99.99
2023-02-02T03:02:54.962Z,99.99
2023-02-02T03:03:54.947Z,99.99
2023-02-02T03:04:57.633Z,99.99
2023-02-02T03:05:54.864Z,99.99
2023-02-02T03:06:54.845Z,99.99
2023-02-02T03:08:09.630Z,99.99
2023-02-02T03:08:54.823Z,99.99
2023-02-02T03:09:54.803Z,99.99
2023-02-02T03:10:54.812Z,99.99
2023-02-02T03:11:54.794Z,99.99
2023-02-02T03:12:54.790Z,99.99
2023-02-02T03:13:54.761Z,99.99
2023-02-02T03:14:54.763Z,99.99
2023-02-02T03:15:54.840Z,99.99
2023-02-02T03:16:54.730Z,99.99
2023-02-02T03:17:54.727Z,99.99
2023-02-02T03:18:54.719Z,99.99
2023-02-02T03:19:54.739Z,99.99
2023-02-02T03:20:54.715Z,99.99
2023-02-02T03:21:54.675Z,99.99
2023-02-02T03:22:54.665Z,99.99
2023-02-02T03:23:54.671Z,99.99
2023-02-02T03:24:54.638Z,99.99
2023-02-02T03:25:54.626Z,99.99
2023-02-02T03:26:54.634Z,99.99
2023-02-02T03:27:54.630Z,99.99
2023-02-02T03:28:54.611Z,99.99
2023-02-02T03:29:54.596Z,99.99
2023-02-02T03:30:54.642Z,99.99
2023-02-02T03:31:54.599Z,99.99
2023-02-02T03:32:54.571Z,99.99
2023-02-02T03:34:01.131Z,99.99
2023-02-02T03:34:54.533Z,99.99
2023-02-02T03:35:54.543Z,99.99
2023-02-02T03:36:54.654Z,99.99
2023-02-02T03:37:54.526Z,99.99
2023-02-02T03:38:55.126Z,99.99
2023-02-02T03:39:54.501Z,99.99
2023-02-02T03:40:54.464Z,99.99
2023-02-02T03:41:54.452Z,99.99
2023-02-02T03:42:54.440Z,99.99
2023-02-02T03:43:54.457Z,99.99
2023-02-02T03:44:54.431Z,99.99
2023-02-02T03:45:54.430Z,99.99
2023-02-02T03:46:55.124Z,99.99
2023-02-02T03:47:54.380Z,99.99
2023-02-02T03:48:54.395Z,99.99
2023-02-02T03:49:54.353Z,99.99
2023-02-02T03:50:54.359Z,99.99
2023-02-02T03:51:55.130Z,99.99
2023-02-02T03:52:54.359Z,99.99
2023-02-02T03:53:54.340Z,99.99
2023-02-02T03:54:54.307Z,99.99
2023-02-02T03:55:54.289Z,99.99
2023-02-02T03:56:54.321Z,99.99
2023-02-02T03:57:54.274Z,99.99
2023-02-02T03:58:54.275Z,99.99
2023-02-02T03:59:54.280Z,99.99
2023-02-02T04:00:54.246Z,99.99
2023-02-02T04:01:54.264Z,99.99
2023-02-02T04:02:54.261Z,99.99
2023-02-02T04:03:55.137Z,99.99
2023-02-02T04:04:54.215Z,99.99
2023-02-02T04:05:54.192Z,99.99
2023-02-02T04:06:54.184Z,99.99
2023-02-02T04:07:54.194Z,99.99
2023-02-02T04:08:54.159Z,99.99
2023-02-02T04:09:54.174Z,99.99
2023-02-02T04:10:54.155Z,99.99
2023-02-02T04:11:54.629Z,99.99
2023-02-02T04:12:54.144Z,99.99
2023-02-02T04:13:54.090Z,99.99
2023-02-02T04:14:54.118Z,99.99
2023-02-02T04:15:54.119Z,99.99
2023-02-02T04:16:54.136Z,99.99
2023-02-02T04:17:54.073Z,99.99
2023-02-02T04:18:56.636Z,99.99
2023-02-02T04:19:54.025Z,99.99
2023-02-02T04:20:56.697Z,99.99
2023-02-02T04:21:54.004Z,99.99
2023-02-02T04:22:54.007Z,99.99
2023-02-02T04:23:54.027Z,99.99
2023-02-02T04:25:00.630Z,99.99
2023-02-02T04:25:54.633Z,99.99
2023-02-02T04:26:54.075Z,99.99
2023-02-02T04:27:53.952Z,99.99
2023-02-02T04:28:53.960Z,99.99
2023-02-02T04:29:53.938Z,99.99
2023-02-02T04:30:54.001Z,99.99
2023-02-02T04:31:53.982Z,99.99
2023-02-02T04:32:53.906Z,99.99
2023-02-02T04:33:53.883Z,99.99
2023-02-02T04:34:53.871Z,99.99
2023-02-02T04:35:53.867Z,99.99
2023-02-02T04:36:56.619Z,99.99
2023-02-02T04:37:53.859Z,99.99
2023-02-02T04:38:53.833Z,99.99
2023-02-02T04:39:53.835Z,99.99
2023-02-02T04:40:53.805Z,99.99
2023-02-02T04:41:53.783Z,99.99
2023-02-02T04:42:53.787Z,99.99
2023-02-02T04:43:54.652Z,99.99
2023-02-02T04:44:53.755Z,99.99
2023-02-02T04:45:54.651Z,99.99
2023-02-02T04:46:53.730Z,99.99
2023-02-02T04:47:54.633Z,99.99
2023-02-02T04:48:53.741Z,99.99
2023-02-02T04:49:53.723Z,99.99
2023-02-02T04:50:53.696Z,99.99
2023-02-02T04:51:53.679Z,99.99
2023-02-02T04:52:53.672Z,99.99
2023-02-02T04:53:53.658Z,99.99
2023-02-02T04:54:53.649Z,99.99
2023-02-02T04:55:53.677Z,99.99
2023-02-02T04:56:54.124Z,99.99
2023-02-02T04:57:53.660Z,99.99
2023-02-02T04:58:53.613Z,99.99
2023-02-02T04:59:53.598Z,99.99
2023-02-02T05:00:53.733Z,99.99
2023-02-02T05:01:53.600Z,99.99
2023-02-02T05:02:53.551Z,99.99
2023-02-02T05:03:53.543Z,99.99
2023-02-02T05:04:53.528Z,99.99
2023-02-02T05:05:53.539Z,99.99
2023-02-02T05:06:53.536Z,99.99
2023-02-02T05:07:53.499Z,99.99
2023-02-02T05:08:53.508Z,99.99
2023-02-02T05:09:53.482Z,99.99
2023-02-02T05:10:53.474Z,99.99
2023-02-02T05:11:53.684Z,99.99
2023-02-02T05:12:53.464Z,99.99
2023-02-02T05:13:53.432Z,99.99
2023-02-02T05:14:54.147Z,99.99
2023-02-02T05:15:53.413Z,99.99
2023-02-02T05:16:53.438Z,99.99
2023-02-02T05:17:53.409Z,99.99
2023-02-02T05:18:53.390Z,99.99
2023-02-02T05:19:53.365Z,99.99
2023-02-02T05:20:53.365Z,99.99
2023-02-02T05:21:53.341Z,99.99
2023-02-02T05:22:53.366Z,99.99
2023-02-02T05:23:53.329Z,99.99
2023-02-02T05:24:54.387Z,99.99
2023-02-02T05:25:53.305Z,99.99
2023-02-02T05:26:53.405Z,99.99
2023-02-02T05:27:53.291Z,99.99
2023-02-02T05:28:53.280Z,99.99
2023-02-02T05:29:53.254Z,99.99
2023-02-02T05:30:53.310Z,99.99
2023-02-02T05:31:53.292Z,99.99
2023-02-02T05:32:53.260Z,99.99
2023-02-02T05:33:53.201Z,99.99
2023-02-02T05:34:53.227Z,99.99
2023-02-02T05:35:53.189Z,99.99
2023-02-02T05:36:53.191Z,99.99
2023-02-02T05:37:53.201Z,99.99
2023-02-02T05:38:53.165Z,99.99
2023-02-02T05:39:53.175Z,99.99
2023-02-02T05:40:53.156Z,99.99
2023-02-02T05:41:53.129Z,99.99
2023-02-02T05:42:53.114Z,99.99
2023-02-02T05:43:53.139Z,99.99
2023-02-02T05:44:53.133Z,99.99
2023-02-02T05:45:53.120Z,99.99
2023-02-02T05:46:53.088Z,99.99
2023-02-02T05:47:54.115Z,99.99
2023-02-02T05:48:53.046Z,99.99
2023-02-02T05:49:53.050Z,99.99
2023-02-02T05:50:53.059Z,99.99
2023-02-02T05:51:53.006Z,99.99
2023-02-02T05:52:53.015Z,99.99
2023-02-02T05:53:52.998Z,99.99
2023-02-02T05:54:52.987Z,99.99
2023-02-02T05:55:52.989Z,99.99
2023-02-02T05:56:52.955Z,99.99
2023-02-02T05:57:52.945Z,99.99
2023-02-02T05:58:52.937Z,99.99
2023-02-02T05:59:52.932Z,99.99
2023-02-02T06:00:54.996Z,99.99
2023-02-02T06:01:52.901Z,99.99
2023-02-02T06:02:52.968Z,99.99
2023-02-02T06:03:52.940Z,99.99
2023-02-02T06:04:52.870Z,99.99
2023-02-02T06:05:52.893Z,99.99
2023-02-02T06:06:52.853Z,99.99
2023-02-02T06:07:52.846Z,99.99
2023-02-02T06:08:52.843Z,99.99
2023-02-02T06:09:52.819Z,99.99
2023-02-02T06:10:52.805Z,99.99
2023-02-02T06:11:52.811Z,99.99
2023-02-02T06:12:52.783Z,99.99
2023-02-02T06:13:52.772Z,99.99
2023-02-02T06:14:52.755Z,99.99
2023-02-02T06:15:52.814Z,99.99
2023-02-02T06:16:52.758Z,99.99
2023-02-02T06:17:52.731Z,99.99
2023-02-02T06:18:52.723Z,99.99
2023-02-02T06:19:52.704Z,99.99
2023-02-02T06:20:52.705Z,99.99
2023-02-02T06:21:52.687Z,99.99
2023-02-02T06:22:52.671Z,99.99
2023-02-02T06:23:52.681Z,99.99
2023-02-02T06:24:52.637Z,99.99
2023-02-02T06:25:52.635Z,99.99
2023-02-02T06:26:52.631Z,99.99
2023-02-02T06:27:52.631Z,99.99
2023-02-02T06:28:52.621Z,99.99
2023-02-02T06:29:52.612Z,99.99
2023-02-02T06:30:52.709Z,99.99
2023-02-02T06:31:52.700Z,99.99
2023-02-02T06:32:52.564Z,99.99
2023-02-02T06:33:52.575Z,99.99
2023-02-02T06:34:52.539Z,99.99
2023-02-02T06:35:52.523Z,99.99
2023-02-02T06:36:52.501Z,99.99
2023-02-02T06:37:52.499Z,99.99
2023-02-02T06:38:53.073Z,99.99
2023-02-02T06:39:52.516Z,99.99
2023-02-02T06:40:52.470Z,99.99
2023-02-02T06:41:52.460Z,99.99
2023-02-02T06:42:53.498Z,99.99
2023-02-02T06:43:52.451Z,99.99
2023-02-02T06:44:52.438Z,99.99
2023-02-02T06:45:52.525Z,99.99
2023-02-02T06:46:52.402Z,99.99
2023-02-02T06:47:52.413Z,99.99
2023-02-02T06:48:52.405Z,99.99
2023-02-02T06:49:52.402Z,99.99
2023-02-02T06:50:52.358Z,99.99
2023-02-02T06:51:52.390Z,99.99
2023-02-02T06:52:52.330Z,99.99
2023-02-02T06:53:52.323Z,99.99
2023-02-02T06:54:52.320Z,99.99
2023-02-02T06:55:52.313Z,99.99
2023-02-02T06:56:52.315Z,99.99
2023-02-02T06:57:52.280Z,99.99
2023-02-02T06:58:52.267Z,99.99
2023-02-02T06:59:52.287Z,99.99
2023-02-02T07:00:52.241Z,99.99
2023-02-02T07:01:52.334Z,99.99
2023-02-02T07:02:52.349Z,99.99
2023-02-02T07:03:52.264Z,99.99
2023-02-02T07:04:52.221Z,99.99
2023-02-02T07:05:52.195Z,99.99
2023-02-02T07:06:52.187Z,99.99
2023-02-02T07:07:52.170Z,99.99
2023-02-02T07:09:01.040Z,99.99
2023-02-02T07:09:57.744Z,99.99
2023-02-02T07:11:14.332Z,99.99
2023-02-02T07:11:53.181Z,99.99
2023-02-02T07:12:52.120Z,99.99
2023-02-02T07:13:52.125Z,99.99
2023-02-02T07:14:52.093Z,99.99
2023-02-02T07:15:52.180Z,99.99
2023-02-02T07:16:52.071Z,99.99
2023-02-02T07:17:52.063Z,99.99
2023-02-02T07:18:52.095Z,99.99
2023-02-02T07:19:52.062Z,99.99
2023-02-02T07:20:52.037Z,99.99
2023-02-02T07:21:52.020Z,99.99
2023-02-02T07:22:52.029Z,99.99
2023-02-02T07:23:52.017Z,99.99
2023-02-02T07:24:51.985Z,99.99
2023-02-02T07:25:51.972Z,99.99
2023-02-02T07:26:52.024Z,99.99
2023-02-02T07:27:51.979Z,99.99
2023-02-02T07:28:51.939Z,99.99
2023-02-02T07:29:51.929Z,99.99
2023-02-02T07:30:52.094Z,99.99
2023-02-02T07:31:51.947Z,99.99
2023-02-02T07:32:51.888Z,99.99
2023-02-02T07:33:51.934Z,99.99
2023-02-02T07:34:51.901Z,99.99
2023-02-02T07:35:51.877Z,99.99
2023-02-02T07:36:51.856Z,99.99
2023-02-02T07:37:51.835Z,99.99
2023-02-02T07:38:51.829Z,99.99
2023-02-02T07:39:51.836Z,99.99
2023-02-02T07:40:51.811Z,99.99
2023-02-02T07:41:51.802Z,99.99
2023-02-02T07:42:51.798Z,99.99
2023-02-02T07:43:51.785Z,99.99
2023-02-02T07:44:51.771Z,99.99
2023-02-02T07:45:51.774Z,99.99
2023-02-02T07:46:51.811Z,99.99
2023-02-02T07:47:51.738Z,99.99
2023-02-02T07:48:51.737Z,99.99
2023-02-02T07:49:51.715Z,99.99
2023-02-02T07:50:51.684Z,99.99
2023-02-02T07:51:51.724Z,99.99
2023-02-02T07:52:51.670Z,99.99
2023-02-02T07:53:51.682Z,99.99
2023-02-02T07:54:55.766Z,99.99
2023-02-02T07:55:52.640Z,99.99
2023-02-02T07:56:51.639Z,99.99
2023-02-02T07:57:51.622Z,99.99
2023-02-02T07:58:51.617Z,99.99
2023-02-02T07:59:51.597Z,99.99
2023-02-02T08:00:51.631Z,99.99
2023-02-02T08:01:51.734Z,99.99
2023-02-02T08:02:51.634Z,99.99
2023-02-02T08:03:51.573Z,99.99
2023-02-02T08:04:51.536Z,99.99
2023-02-02T08:05:51.563Z,99.99
2023-02-02T08:06:51.533Z,99.99
2023-02-02T08:07:51.541Z,99.99
2023-02-02T08:08:51.528Z,99.99
2023-02-02T08:09:51.485Z,99.99
2023-02-02T08:10:51.470Z,99.99
2023-02-02T08:11:51.462Z,99.99
2023-02-02T08:12:51.447Z,99.99
2023-02-02T08:13:51.474Z,99.99
2023-02-02T08:14:51.435Z,99.99
2023-02-02T08:15:51.464Z,99.99
2023-02-02T08:16:51.404Z,99.99
2023-02-02T08:17:51.405Z,99.99
2023-02-02T08:18:51.397Z,99.99
2023-02-02T08:19:51.395Z,99.99
2023-02-02T08:20:51.374Z,99.99
2023-02-02T08:21:51.352Z,99.99
2023-02-02T08:22:51.351Z,99.99
2023-02-02T08:23:51.391Z,99.99
2023-02-02T08:24:51.304Z,99.99
2023-02-02T08:25:51.303Z,99.99
2023-02-02T08:26:51.344Z,99.99
2023-02-02T08:27:51.289Z,99.99
2023-02-02T08:28:51.288Z,99.99
2023-02-02T08:29:51.265Z,99.99
2023-02-02T08:30:51.314Z,99.99
2023-02-02T08:31:51.321Z,99.99
2023-02-02T08:32:51.238Z,99.99
2023-02-02T08:33:51.215Z,99.99
2023-02-02T08:34:51.214Z,99.99
2023-02-02T08:35:51.188Z,99.99
2023-02-02T08:36:51.181Z,99.99
2023-02-02T08:37:51.167Z,99.99
2023-02-02T08:38:51.163Z,99.99
2023-02-02T08:39:51.199Z,99.99
2023-02-02T08:40:51.138Z,99.99
2023-02-02T08:41:51.119Z,99.99
2023-02-02T08:42:51.132Z,99.99
2023-02-02T08:43:51.109Z,99.99
2023-02-02T08:46:01.606Z,99.99
2023-02-02T08:46:02.839Z,99.99
2023-02-02T08:46:52.140Z,99.99
2023-02-02T08:48:05.314Z,99.99
2023-02-02T08:48:52.056Z,99.99
2023-02-02T08:49:51.079Z,99.99
2023-02-02T08:50:51.019Z,99.99
2023-02-02T08:51:51.027Z,99.99
2023-02-02T08:52:50.991Z,99.99
2023-02-02T08:53:51.005Z,99.99
2023-02-02T08:54:50.997Z,99.99
2023-02-02T08:55:50.989Z,99.99
2023-02-02T08:56:50.962Z,99.99
2023-02-02T08:57:50.952Z,99.99
2023-02-02T08:58:50.932Z,99.99
2023-02-02T08:59:50.977Z,99.99
2023-02-02T09:00:50.953Z,99.99
2023-02-02T09:01:50.972Z,99.99
2023-02-02T09:02:50.899Z,99.99
2023-02-02T09:03:50.891Z,99.99
2023-02-02T09:04:50.870Z,99.99
2023-02-02T09:05:50.879Z,99.99
2023-02-02T09:06:50.870Z,99.99
2023-02-02T09:07:50.859Z,99.99
2023-02-02T09:08:50.853Z,99.99
2023-02-02T09:09:50.832Z,99.99
2023-02-02T09:10:50.812Z,99.99
2023-02-02T09:11:50.837Z,99.99
2023-02-02T09:12:50.782Z,99.99
2023-02-02T09:13:50.785Z,99.99
2023-02-02T09:14:51.045Z,99.99
2023-02-02T09:15:50.748Z,99.99
2023-02-02T09:16:50.803Z,99.99
2023-02-02T09:17:50.727Z,99.99
2023-02-02T09:18:50.713Z,99.99
2023-02-02T09:19:50.710Z,99.99
2023-02-02T09:20:50.691Z,99.99
2023-02-02T09:21:50.763Z,99.99
2023-02-02T09:22:50.692Z,99.99
2023-02-02T09:23:50.669Z,99.99
2023-02-02T09:24:50.654Z,99.99
2023-02-02T09:25:50.647Z,99.99
2023-02-02T09:26:50.696Z,99.99
2023-02-02T09:27:50.639Z,99.99
2023-02-02T09:28:50.600Z,99.99
2023-02-02T09:29:50.611Z,99.99
2023-02-02T09:30:50.652Z,99.99
2023-02-02T09:31:50.650Z,99.99
2023-02-02T09:32:50.603Z,99.99
2023-02-02T09:33:50.612Z,99.99
2023-02-02T09:34:50.591Z,99.99
2023-02-02T09:35:50.533Z,99.99
2023-02-02T09:36:50.556Z,99.99
2023-02-02T09:37:50.510Z,99.99
2023-02-02T09:38:50.531Z,99.99
2023-02-02T09:39:50.539Z,99.99
2023-02-02T09:40:50.499Z,99.99
2023-02-02T09:41:50.460Z,99.99
2023-02-02T09:42:50.468Z,99.99
2023-02-02T09:43:50.496Z,99.99
2023-02-02T09:44:50.442Z,99.99
2023-02-02T09:45:50.463Z,99.99
2023-02-02T09:46:50.425Z,99.99
2023-02-02T09:47:50.398Z,99.99
2023-02-02T09:48:50.383Z,99.99
2023-02-02T09:49:50.382Z,99.99
2023-02-02T09:50:50.380Z,99.99
2023-02-02T09:51:50.353Z,99.99
2023-02-02T09:52:50.338Z,99.99
2023-02-02T09:53:55.604Z,99.99
2023-02-02T09:54:51.350Z,99.99
2023-02-02T09:55:50.322Z,99.99
2023-02-02T09:56:50.289Z,99.99
2023-02-02T09:57:50.299Z,99.99
2023-02-02T09:58:50.278Z,99.99
2023-02-02T09:59:50.304Z,99.99
2023-02-02T10:00:50.276Z,99.99
2023-02-02T10:01:50.251Z,99.99
2023-02-02T10:02:50.240Z,99.99
2023-02-02T10:03:50.285Z,99.99
2023-02-02T10:04:50.206Z,99.99
2023-02-02T10:05:50.231Z,99.99
2023-02-02T10:06:50.224Z,99.99
2023-02-02T10:07:50.197Z,99.99
2023-02-02T10:08:50.167Z,99.99
2023-02-02T10:09:50.164Z,99.99
2023-02-02T10:10:50.151Z,99.99
2023-02-02T10:11:50.168Z,99.99
2023-02-02T10:12:50.124Z,99.99
2023-02-02T10:13:50.127Z,99.99
2023-02-02T10:14:50.201Z,99.99
2023-02-02T10:15:50.164Z,99.99
2023-02-02T10:16:50.109Z,99.99
2023-02-02T10:17:50.093Z,99.99
2023-02-02T10:18:50.060Z,99.99
2023-02-02T10:19:50.068Z,99.99
2023-02-02T10:20:50.043Z,99.99
2023-02-02T10:21:50.065Z,99.99
2023-02-02T10:22:50.016Z,99.99
2023-02-02T10:23:50.042Z,99.99
2023-02-02T10:24:50.000Z,99.99
2023-02-02T10:25:50.013Z,99.99
2023-02-02T10:26:50.069Z,99.99
2023-02-02T10:27:49.993Z,99.99
2023-02-02T10:28:49.950Z,99.99
2023-02-02T10:29:49.982Z,99.99
2023-02-02T10:30:50.084Z,99.99
2023-02-02T10:31:50.099Z,99.99
2023-02-02T10:32:49.931Z,99.99
2023-02-02T10:33:49.915Z,99.99
2023-02-02T10:34:51.230Z,99.99
2023-02-02T10:35:49.904Z,99.99
2023-02-02T10:36:49.863Z,99.99
2023-02-02T10:37:50.895Z,99.99
2023-02-02T10:38:49.852Z,99.99
2023-02-02T10:39:49.899Z,99.99
2023-02-02T10:40:49.828Z,99.99
2023-02-02T10:41:49.844Z,99.99
2023-02-02T10:42:49.804Z,99.99
2023-02-02T10:43:49.823Z,99.99
2023-02-02T10:44:49.811Z,99.99
2023-02-02T10:45:49.806Z,99.99
2023-02-02T10:46:49.756Z,99.99
2023-02-02T10:47:49.772Z,99.99
2023-02-02T10:48:49.821Z,99.99
2023-02-02T10:49:53.788Z,99.99
2023-02-02T10:50:50.750Z,99.99
2023-02-02T10:51:49.709Z,99.99
2023-02-02T10:52:49.720Z,99.99
2023-02-02T10:53:49.705Z,99.99
2023-02-02T10:54:57.261Z,99.99
2023-02-02T10:55:50.653Z,99.99
2023-02-02T10:56:49.659Z,99.99
2023-02-02T10:57:49.645Z,99.99
2023-02-02T10:58:49.641Z,99.99
2023-02-02T10:59:49.615Z,99.99
2023-02-02T11:00:49.625Z,99.99
2023-02-02T11:01:49.628Z,99.99
2023-02-02T11:02:49.668Z,99.99
2023-02-02T11:03:49.595Z,99.99
2023-02-02T11:04:49.576Z,99.99
2023-02-02T11:05:49.550Z,99.99
2023-02-02T11:06:49.561Z,99.99
2023-02-02T11:07:49.525Z,99.99
2023-02-02T11:08:49.520Z,99.99
2023-02-02T11:09:49.504Z,99.99
2023-02-02T11:10:49.536Z,99.99
2023-02-02T11:11:49.490Z,99.99
2023-02-02T11:12:49.494Z,99.99
2023-02-02T11:13:49.466Z,99.99
2023-02-02T11:14:49.460Z,99.99
2023-02-02T11:15:49.472Z,99.99
2023-02-02T11:16:49.470Z,99.99
2023-02-02T11:17:49.417Z,99.99
2023-02-02T11:18:49.446Z,99.99
2023-02-02T11:19:49.416Z,99.99
2023-02-02T11:20:49.400Z,99.99
2023-02-02T11:21:49.419Z,99.99
2023-02-02T11:22:49.378Z,99.99
2023-02-02T11:23:49.366Z,99.99
2023-02-02T11:24:49.379Z,99.99
2023-02-02T11:25:49.327Z,99.99
2023-02-02T11:26:49.442Z,99.99
2023-02-02T11:27:49.335Z,99.99
2023-02-02T11:28:49.324Z,99.99
2023-02-02T11:29:49.307Z,99.99
2023-02-02T11:30:49.433Z,99.99
2023-02-02T11:31:49.366Z,99.99
2023-02-02T11:32:49.475Z,99.99
2023-02-02T11:33:49.253Z,99.99
2023-02-02T11:34:49.238Z,99.99
2023-02-02T11:35:49.290Z,99.99
2023-02-02T11:36:49.210Z,99.99
2023-02-02T11:37:50.120Z,99.99
2023-02-02T11:38:49.198Z,99.99
2023-02-02T11:39:53.926Z,99.99
2023-02-02T11:40:49.171Z,99.99
2023-02-02T11:41:49.200Z,99.99
2023-02-02T11:42:49.146Z,99.99
2023-02-02T11:43:52.121Z,99.99
2023-02-02T11:44:49.145Z,99.99
2023-02-02T11:45:49.119Z,99.99
2023-02-02T11:46:55.682Z,99.99
2023-02-02T11:47:49.105Z,99.99
2023-02-02T11:48:49.102Z,99.99
2023-02-02T11:49:49.727Z,99.99
2023-02-02T11:50:49.178Z,99.99
2023-02-02T11:51:49.102Z,99.99
2023-02-02T11:52:49.058Z,99.99
2023-02-02T11:53:49.067Z,99.99
2023-02-02T11:54:49.029Z,99.99
2023-02-02T11:55:49.003Z,99.99
2023-02-02T11:56:49.007Z,99.99
2023-02-02T11:57:48.989Z,99.99
2023-02-02T11:58:49.185Z,99.99
2023-02-02T11:59:51.642Z,99.99
2023-02-02T12:00:48.960Z,99.99
2023-02-02T12:01:48.958Z,99.99
2023-02-02T12:02:48.967Z,99.99
2023-02-02T12:03:48.971Z,99.99
2023-02-02T12:04:48.912Z,99.99
2023-02-02T12:05:48.902Z,99.99
2023-02-02T12:06:48.890Z,99.99
2023-02-02T12:07:48.897Z,99.99
2023-02-02T12:08:48.877Z,99.99
2023-02-02T12:09:48.887Z,99.99
2023-02-02T12:10:48.873Z,99.99
2023-02-02T12:11:48.829Z,99.99
2023-02-02T12:12:48.831Z,99.99
2023-02-02T12:13:48.825Z,99.99
2023-02-02T12:14:48.835Z,99.99
2023-02-02T12:15:48.903Z,99.99
2023-02-02T12:16:48.782Z,99.99
2023-02-02T12:17:48.778Z,99.99
2023-02-02T12:18:48.768Z,99.99
2023-02-02T12:19:48.773Z,99.99
2023-02-02T12:20:48.732Z,99.99
2023-02-02T12:21:48.729Z,99.99
2023-02-02T12:22:48.714Z,99.99
2023-02-02T12:23:48.721Z,99.99
2023-02-02T12:24:48.691Z,99.99
2023-02-02T12:25:48.696Z,99.99
2023-02-02T12:26:48.692Z,99.99
2023-02-02T12:27:48.655Z,99.99
2023-02-02T12:28:48.647Z,99.99
2023-02-02T12:29:48.637Z,99.99
2023-02-02T12:30:48.684Z,99.99
2023-02-02T12:31:48.722Z,99.99
2023-02-02T12:32:48.601Z,99.99
2023-02-02T12:33:48.585Z,99.99
2023-02-02T12:34:48.580Z,99.99
2023-02-02T12:35:48.603Z,99.99
2023-02-02T12:36:48.570Z,99.99
2023-02-02T12:37:48.535Z,99.99
2023-02-02T12:38:48.537Z,99.99
2023-02-02T12:39:48.555Z,99.99
2023-02-02T12:40:48.514Z,99.99
2023-02-02T12:41:48.520Z,99.99
2023-02-02T12:42:48.509Z,99.99
2023-02-02T12:43:48.473Z,99.99
2023-02-02T12:44:48.481Z,99.99
2023-02-02T12:45:48.474Z,99.99
2023-02-02T12:46:48.472Z,99.99
2023-02-02T12:47:48.446Z,99.99
2023-02-02T12:48:48.457Z,99.99
2023-02-02T12:49:48.415Z,99.99
2023-02-02T12:50:48.402Z,99.99
2023-02-02T12:51:48.397Z,99.99
2023-02-02T12:52:48.391Z,99.99